createdAt,value
2023-05-09T00:00:48.436Z,98.70
2023-05-09T00:03:37.126Z,98.60
2023-05-09T00:06:27.034Z,99.00
2023-05-09T00:09:15.775Z,98.90
2023-05-09T00:12:05.127Z,99.10
2023-05-09T00:14:54.454Z,99.60
2023-05-09T00:17:45.904Z,99.60
2023-05-09T00:20:35.129Z,99.70
2023-05-09T00:23:24.110Z,99.90
2023-05-09T00:26:12.907Z,99.90
2023-05-09T00:29:04.215Z,99.90
2023-05-09T00:31:53.146Z,99.90
2023-05-09T00:34:43.424Z,99.90
2023-05-09T00:37:33.172Z,99.90
2023-05-09T00:40:22.109Z,99.90
2023-05-09T00:43:11.024Z,99.90
2023-05-09T00:45:59.956Z,99.90
2023-05-09T00:48:48.718Z,99.90
2023-05-09T00:51:40.441Z,99.90
2023-05-09T00:54:29.732Z,99.90
2023-05-09T00:57:18.561Z,99.90
2023-05-09T01:00:13.255Z,99.90
2023-05-09T01:03:02.568Z,99.90
2023-05-09T01:05:57.830Z,98.90
2023-05-09T01:08:53.746Z,97.90
2023-05-09T01:11:47.030Z,98.10
2023-05-09T01:14:44.218Z,99.00
2023-05-09T01:17:42.411Z,98.40
2023-05-09T01:20:34.998Z,98.70
2023-05-09T01:23:56.144Z,98.10
2023-05-09T01:26:57.161Z,98.40
2023-05-09T01:29:49.780Z,98.20
2023-05-09T01:32:40.798Z,98.20
2023-05-09T01:35:32.580Z,98.30
2023-05-09T01:38:24.989Z,98.30
2023-05-09T01:41:16.747Z,98.20
2023-05-09T01:44:09.523Z,98.80
2023-05-09T01:47:01.408Z,98.60
2023-05-09T01:49:51.381Z,98.60
2023-05-09T01:52:43.447Z,98.80
2023-05-09T01:55:35.455Z,98.80
2023-05-09T01:58:26.226Z,99.10
2023-05-09T02:01:15.935Z,99.60
2023-05-09T02:04:07.640Z,99.50
2023-05-09T02:06:57.093Z,99.20
2023-05-09T02:09:47.515Z,99.30
2023-05-09T02:12:36.318Z,99.10
2023-05-09T02:15:26.042Z,98.80
2023-05-09T02:18:15.079Z,98.70
2023-05-09T02:21:05.831Z,98.70
2023-05-09T02:23:54.732Z,98.80
2023-05-09T02:26:44.148Z,99.00
2023-05-09T02:29:40.151Z,98.80
2023-05-09T02:32:33.459Z,98.30
2023-05-09T02:35:24.050Z,98.60
2023-05-09T02:38:15.011Z,98.80
2023-05-09T02:41:03.960Z,99.10
2023-05-09T02:43:52.821Z,99.30
2023-05-09T02:46:43.379Z,99.00
2023-05-09T02:49:32.826Z,98.40
2023-05-09T02:52:23.173Z,99.50
2023-05-09T02:55:13.739Z,99.80
2023-05-09T02:58:13.627Z,99.70
2023-05-09T03:01:05.238Z,99.90
2023-05-09T03:03:54.149Z,99.70
2023-05-09T03:06:44.089Z,99.90
2023-05-09T03:09:33.487Z,99.40
2023-05-09T03:12:24.306Z,99.30
2023-05-09T03:15:15.880Z,98.90
2023-05-09T03:18:07.411Z,97.90
2023-05-09T03:20:56.139Z,98.30
2023-05-09T03:23:45.009Z,98.90
2023-05-09T03:26:35.784Z,98.40
2023-05-09T03:29:26.211Z,98.80
2023-05-09T03:32:16.023Z,98.70
2023-05-09T03:35:05.284Z,98.40
2023-05-09T03:37:54.905Z,98.00
2023-05-09T03:40:43.945Z,98.00
2023-05-09T03:43:34.248Z,97.20
2023-05-09T03:46:25.601Z,98.10
2023-05-09T03:49:14.612Z,97.50
2023-05-09T03:52:05.103Z,97.50
2023-05-09T03:54:54.864Z,96.50
2023-05-09T03:57:44.352Z,96.30
2023-05-09T04:00:33.925Z,96.20
2023-05-09T04:03:32.469Z,96.50
2023-05-09T04:06:21.449Z,96.20
2023-05-09T04:09:10.501Z,95.60
2023-05-09T04:11:59.283Z,95.10
2023-05-09T04:14:49.116Z,95.20
2023-05-09T04:17:38.890Z,94.50
2023-05-09T04:20:29.735Z,94.80
2023-05-09T04:23:18.917Z,95.30
2023-05-09T04:26:09.833Z,95.60
2023-05-09T04:28:58.963Z,95.60
2023-05-09T04:31:47.977Z,95.90
2023-05-09T04:34:37.057Z,96.20
2023-05-09T04:37:34.891Z,95.80
2023-05-09T04:40:26.744Z,95.50
2023-05-09T04:43:20.208Z,95.70
2023-05-09T04:46:09.439Z,94.70
2023-05-09T04:48:59.696Z,94.70
2023-05-09T04:51:48.580Z,95.00
2023-05-09T04:54:38.986Z,95.10
2023-05-09T04:57:28.901Z,94.40
2023-05-09T05:00:19.812Z,93.80
2023-05-09T05:03:10.334Z,92.40
2023-05-09T05:05:59.173Z,92.20
2023-05-09T05:08:47.993Z,92.50
2023-05-09T05:11:38.394Z,92.40
2023-05-09T05:14:27.404Z,93.10
2023-05-09T05:17:18.552Z,93.40
2023-05-09T05:20:10.745Z,93.10
2023-05-09T05:23:04.056Z,92.50
2023-05-09T05:25:52.912Z,92.10
2023-05-09T05:28:43.161Z,90.80
2023-05-09T05:31:32.334Z,91.10
2023-05-09T05:34:21.197Z,91.30
2023-05-09T05:37:10.156Z,91.20
2023-05-09T05:39:59.261Z,91.00
2023-05-09T05:42:48.086Z,90.50
2023-05-09T05:45:38.330Z,89.20
2023-05-09T05:48:30.228Z,90.30
2023-05-09T05:51:19.664Z,88.20
2023-05-09T05:54:08.650Z,86.30
2023-05-09T05:56:58.779Z,82.90
2023-05-09T05:59:48.432Z,83.00
2023-05-09T06:02:39.804Z,75.30
2023-05-09T06:05:28.897Z,69.80
2023-05-09T06:08:17.594Z,67.90
2023-05-09T06:11:06.542Z,70.00
2023-05-09T06:13:55.652Z,71.90
2023-05-09T06:16:44.981Z,74.70
2023-05-09T06:19:35.756Z,77.10
2023-05-09T06:22:24.690Z,76.00
2023-05-09T06:25:13.726Z,80.80
2023-05-09T06:28:02.589Z,78.90
2023-05-09T06:30:51.469Z,74.80
2023-05-09T06:33:40.213Z,68.80
2023-05-09T06:36:31.148Z,68.60
2023-05-09T06:39:19.995Z,67.90
2023-05-09T06:42:08.842Z,67.60
2023-05-09T06:45:00.946Z,69.10
2023-05-09T06:47:49.856Z,70.10
2023-05-09T06:50:38.821Z,70.70
2023-05-09T06:53:29.026Z,70.60
2023-05-09T06:56:20.274Z,71.80
2023-05-09T06:59:13.294Z,71.20
2023-05-09T07:02:02.492Z,70.10
2023-05-09T07:04:51.545Z,69.60
2023-05-09T07:07:40.897Z,70.10
2023-05-09T07:10:31.270Z,67.60
2023-05-09T07:13:20.122Z,67.50
2023-05-09T07:16:09.086Z,65.10
2023-05-09T07:18:57.981Z,65.90
2023-05-09T07:21:46.891Z,66.30
2023-05-09T07:24:35.911Z,61.40
2023-05-09T07:27:26.235Z,64.50
2023-05-09T07:30:16.033Z,60.50
2023-05-09T07:33:05.330Z,59.00
2023-05-09T07:35:54.265Z,57.80
2023-05-09T07:38:43.016Z,56.30
2023-05-09T07:41:33.845Z,56.30
2023-05-09T07:44:24.386Z,57.10
2023-05-09T07:47:13.180Z,55.70
2023-05-09T07:50:02.352Z,57.90
2023-05-09T07:52:52.029Z,56.50
2023-05-09T07:55:41.036Z,54.90
2023-05-09T07:58:30.004Z,53.40
2023-05-09T08:01:20.228Z,52.10
2023-05-09T08:04:10.060Z,52.20
2023-05-09T08:07:01.246Z,50.40
2023-05-09T08:09:50.124Z,52.30
2023-05-09T08:12:38.809Z,51.10
2023-05-09T08:15:27.623Z,50.60
2023-05-09T08:18:17.722Z,48.30
2023-05-09T08:21:06.824Z,48.90
2023-05-09T08:23:55.901Z,48.50
2023-05-09T08:26:45.406Z,49.90
2023-05-09T08:29:34.127Z,50.60
2023-05-09T08:32:23.701Z,51.10
2023-05-09T08:35:14.283Z,48.10
2023-05-09T08:38:03.919Z,47.90
2023-05-09T08:40:52.836Z,47.50
2023-05-09T08:43:42.664Z,47.60
2023-05-09T08:46:40.134Z,48.10
2023-05-09T08:49:29.671Z,46.10
2023-05-09T08:52:20.048Z,44.30
2023-05-09T08:55:09.581Z,46.40
2023-05-09T08:57:59.558Z,45.90
2023-05-09T09:00:49.067Z,44.70
2023-05-09T09:03:39.570Z,45.20
2023-05-09T09:06:31.210Z,47.20
2023-05-09T09:09:22.318Z,45.50
2023-05-09T09:12:11.713Z,43.40
2023-05-09T09:15:05.397Z,46.10
2023-05-09T09:17:56.713Z,43.00
2023-05-09T09:20:49.071Z,44.90
2023-05-09T09:23:40.354Z,43.80
2023-05-09T09:26:32.097Z,45.40
2023-05-09T09:29:22.978Z,43.40
2023-05-09T09:32:11.845Z,43.50
2023-05-09T09:35:07.150Z,42.00
2023-05-09T09:38:00.244Z,40.30
2023-05-09T09:40:56.144Z,43.00
2023-05-09T09:43:47.902Z,41.50
2023-05-09T09:46:45.116Z,40.50
2023-05-09T09:49:34.031Z,42.00
2023-05-09T09:52:26.076Z,39.70
2023-05-09T09:55:14.925Z,37.50
2023-05-09T09:58:04.521Z,39.70
2023-05-09T10:01:08.227Z,39.30
2023-05-09T10:03:57.078Z,38.40
2023-05-09T10:06:54.398Z,38.00
2023-05-09T10:09:44.113Z,36.10
2023-05-09T10:12:34.694Z,37.90
2023-05-09T10:15:24.116Z,35.80
2023-05-09T10:18:19.900Z,37.60
2023-05-09T10:21:11.622Z,33.70
2023-05-09T10:24:01.854Z,34.10
2023-05-09T10:26:52.400Z,36.50
2023-05-09T10:29:46.659Z,35.30
2023-05-09T10:32:43.684Z,33.60
2023-05-09T10:35:37.719Z,32.90
2023-05-09T10:38:26.961Z,33.40
2023-05-09T10:41:17.304Z,32.30
2023-05-09T10:44:06.852Z,33.20
2023-05-09T10:46:56.441Z,32.20
2023-05-09T10:49:46.390Z,32.50
2023-05-09T10:52:56.759Z,31.80
2023-05-09T10:55:55.429Z,31.30
2023-05-09T10:58:44.179Z,30.60
2023-05-09T11:01:37.529Z,31.10
2023-05-09T11:04:26.788Z,30.20
2023-05-09T11:07:26.541Z,31.60
2023-05-09T11:10:18.658Z,31.20
2023-05-09T11:13:11.116Z,30.20
2023-05-09T11:16:13.578Z,31.40
2023-05-09T11:19:02.655Z,29.80
2023-05-09T11:22:03.207Z,31.20
2023-05-09T11:24:54.144Z,29.90
2023-05-09T11:30:43.973Z,51.10
2023-05-09T11:33:33.690Z,48.70
2023-05-09T11:36:29.871Z,40.10
2023-05-09T11:39:26.539Z,43.20
2023-05-09T11:42:15.686Z,43.70
2023-05-09T11:45:07.553Z,44.40
2023-05-09T11:47:58.994Z,42.20
2023-05-09T11:50:49.882Z,45.10
2023-05-09T11:53:47.039Z,45.50
2023-05-09T11:56:37.308Z,39.50
2023-05-09T11:59:26.649Z,35.60
2023-05-09T12:02:16.421Z,33.50
2023-05-09T12:05:11.248Z,37.10
2023-05-09T12:08:04.925Z,31.30
2023-05-09T12:10:53.654Z,29.40
2023-05-09T12:13:49.491Z,29.70
2023-05-09T12:16:47.069Z,29.80
2023-05-09T12:19:36.788Z,29.40
2023-05-09T12:22:27.536Z,28.40
2023-05-09T12:25:16.650Z,30.20
2023-05-09T12:28:06.580Z,30.80
2023-05-09T12:30:56.381Z,32.60
2023-05-09T12:33:45.372Z,28.40
2023-05-09T12:36:37.160Z,38.40
2023-05-09T12:42:16.452Z,33.00
2023-05-09T12:45:06.239Z,35.20
2023-05-09T12:47:55.311Z,37.00
2023-05-09T12:50:48.975Z,38.30
2023-05-09T12:53:40.523Z,43.00
2023-05-09T12:56:35.443Z,42.30
2023-05-09T12:59:25.267Z,43.10
2023-05-09T13:02:15.023Z,50.30
2023-05-09T13:05:09.050Z,46.20
2023-05-09T13:07:58.723Z,45.10
2023-05-09T13:10:47.680Z,46.90
2023-05-09T13:13:38.128Z,46.30
2023-05-09T13:16:27.106Z,49.00
2023-05-09T13:19:16.475Z,47.70
2023-05-09T13:22:05.242Z,46.80
2023-05-09T13:24:53.968Z,45.50
2023-05-09T13:27:42.726Z,44.10
2023-05-09T13:30:33.102Z,45.60
2023-05-09T13:33:26.006Z,46.10
2023-05-09T13:36:16.349Z,45.30
2023-05-09T13:39:05.331Z,45.10
2023-05-09T13:41:54.070Z,45.40
2023-05-09T13:44:43.178Z,46.00
2023-05-09T13:47:33.646Z,46.40
2023-05-09T13:50:22.839Z,47.60
2023-05-09T13:53:11.722Z,48.10
2023-05-09T13:56:00.776Z,48.40
2023-05-09T13:58:50.627Z,48.30
2023-05-09T14:01:39.488Z,48.80
2023-05-09T14:04:32.154Z,52.10
2023-05-09T14:07:21.832Z,51.60
2023-05-09T14:10:12.168Z,52.00
2023-05-09T14:13:01.246Z,50.30
2023-05-09T14:15:50.169Z,51.00
2023-05-09T14:18:39.045Z,49.00
2023-05-09T14:21:29.265Z,51.50
2023-05-09T14:24:18.389Z,45.60
2023-05-09T14:27:07.245Z,45.60
2023-05-09T14:29:56.360Z,45.70
2023-05-09T14:32:45.102Z,45.60
2023-05-09T14:35:34.655Z,46.80
2023-05-09T14:38:24.772Z,45.60
2023-05-09T14:41:14.493Z,46.00
2023-05-09T14:44:03.723Z,45.30
2023-05-09T14:46:52.844Z,46.30
2023-05-09T14:49:42.022Z,47.00
2023-05-09T14:52:30.993Z,46.70
2023-05-09T14:55:23.187Z,46.90
2023-05-09T14:58:13.541Z,46.70
2023-05-09T15:01:02.669Z,46.60
2023-05-09T15:03:51.405Z,47.60
2023-05-09T15:06:41.129Z,47.80
2023-05-09T15:09:29.921Z,47.10
2023-05-09T15:12:20.165Z,46.50
2023-05-09T15:15:17.076Z,47.40
2023-05-09T15:18:06.030Z,46.50
2023-05-09T15:20:54.835Z,47.50
2023-05-09T15:23:43.539Z,47.70
2023-05-09T15:26:32.439Z,46.80
2023-05-09T15:29:22.822Z,47.20
2023-05-09T15:32:11.578Z,47.90
2023-05-09T15:35:00.434Z,47.90
2023-05-09T15:37:49.746Z,48.70
2023-05-09T15:40:38.891Z,48.20
2023-05-09T15:43:27.800Z,48.40
2023-05-09T15:46:18.201Z,48.50
2023-05-09T15:49:07.065Z,48.60
2023-05-09T15:51:55.875Z,48.00
2023-05-09T15:54:45.390Z,48.90
2023-05-09T15:57:34.401Z,49.30
2023-05-09T16:00:23.592Z,51.40
2023-05-09T16:03:13.997Z,50.10
2023-05-09T16:06:03.404Z,49.60
2023-05-09T16:08:52.174Z,50.70
2023-05-09T16:11:41.500Z,51.70
2023-05-09T16:14:30.457Z,52.10
2023-05-09T16:17:19.757Z,52.50
2023-05-09T16:20:13.893Z,54.30
2023-05-09T16:23:03.145Z,53.60
2023-05-09T16:25:51.988Z,52.90
2023-05-09T16:28:40.973Z,52.40
2023-05-09T16:31:32.165Z,52.50
2023-05-09T16:34:22.060Z,51.50
2023-05-09T16:37:12.541Z,52.60
2023-05-09T16:40:01.616Z,50.30
2023-05-09T16:42:50.673Z,50.50
2023-05-09T16:45:39.512Z,51.30
2023-05-09T16:48:30.000Z,49.00
2023-05-09T16:51:19.188Z,48.60
2023-05-09T16:54:09.626Z,49.00
2023-05-09T16:56:58.438Z,49.10
2023-05-09T16:59:47.602Z,49.30
2023-05-09T17:02:37.262Z,49.20
2023-05-09T17:05:26.315Z,49.80
2023-05-09T17:08:15.359Z,49.30
2023-05-09T17:11:06.665Z,49.40
2023-05-09T17:13:55.385Z,50.00
2023-05-09T17:16:44.494Z,49.70
2023-05-09T17:19:34.787Z,49.80
2023-05-09T17:22:23.579Z,50.00
2023-05-09T17:25:12.618Z,50.30
2023-05-09T17:28:03.189Z,51.60
2023-05-09T17:30:51.961Z,53.00
2023-05-09T17:33:41.871Z,57.90
2023-05-09T17:36:31.993Z,61.70
2023-05-09T17:39:20.797Z,53.20
2023-05-09T17:42:10.694Z,53.70
2023-05-09T17:45:02.307Z,54.30
2023-05-09T17:47:51.151Z,56.60
2023-05-09T17:50:39.897Z,56.90
2023-05-09T17:53:28.557Z,57.20
2023-05-09T17:56:17.420Z,58.30
2023-05-09T17:59:06.779Z,59.10
2023-05-09T18:01:57.411Z,59.80
2023-05-09T18:04:46.608Z,58.50
2023-05-09T18:07:35.415Z,57.10
2023-05-09T18:10:24.310Z,55.40
2023-05-09T18:13:14.016Z,55.20
2023-05-09T18:16:03.384Z,54.80
2023-05-09T18:18:53.806Z,55.40
2023-05-09T18:21:42.544Z,55.30
2023-05-09T18:24:31.677Z,55.70
2023-05-09T18:27:20.487Z,55.40
2023-05-09T18:30:10.524Z,55.90
2023-05-09T18:33:01.714Z,55.20
2023-05-09T18:35:52.080Z,55.20
2023-05-09T18:38:41.678Z,56.10
2023-05-09T18:41:32.057Z,56.40
2023-05-09T18:44:20.963Z,56.20
2023-05-09T18:47:09.944Z,56.40
2023-05-09T18:50:01.742Z,56.40
2023-05-09T18:52:52.794Z,56.80
2023-05-09T18:55:42.890Z,57.60
2023-05-09T18:58:32.447Z,57.80
2023-05-09T19:01:21.519Z,57.40
2023-05-09T19:04:10.414Z,57.70
2023-05-09T19:07:00.092Z,58.10
2023-05-09T19:09:50.689Z,58.20
2023-05-09T19:12:39.482Z,58.70
2023-05-09T19:15:29.702Z,58.80
2023-05-09T19:18:18.489Z,59.60
2023-05-09T19:21:07.361Z,59.40
2023-05-09T19:23:56.382Z,59.40
2023-05-09T19:26:46.603Z,60.50
2023-05-09T19:29:35.400Z,59.80
2023-05-09T19:32:24.226Z,60.20
2023-05-09T19:35:13.093Z,60.70
2023-05-09T19:38:02.352Z,61.10
2023-05-09T19:40:51.344Z,60.80
2023-05-09T19:43:41.538Z,61.50
2023-05-09T19:46:30.464Z,61.50
2023-05-09T19:49:19.540Z,61.70
2023-05-09T19:52:08.455Z,62.50
2023-05-09T19:54:57.159Z,62.60
2023-05-09T19:57:46.106Z,62.00
2023-05-09T20:03:27.864Z,62.80
2023-05-09T20:06:16.836Z,63.00
2023-05-09T20:09:05.796Z,63.10
2023-05-09T20:11:54.490Z,63.50
2023-05-09T20:14:44.473Z,64.60
2023-05-09T20:17:34.871Z,63.50
2023-05-09T20:20:23.804Z,64.80
2023-05-09T20:23:12.659Z,64.30
2023-05-09T20:26:01.550Z,64.90
2023-05-09T20:28:50.481Z,65.30
2023-05-09T20:31:42.406Z,64.70
2023-05-09T20:34:32.803Z,65.80
2023-05-09T20:37:21.568Z,65.00
2023-05-09T20:40:11.214Z,65.20
2023-05-09T20:43:00.436Z,65.90
2023-05-09T20:45:50.205Z,66.70
2023-05-09T20:48:39.399Z,66.50
2023-05-09T20:51:30.230Z,66.60
2023-05-09T20:54:19.308Z,66.90
2023-05-09T20:57:08.274Z,66.40
2023-05-09T20:59:57.087Z,67.20
2023-05-09T21:02:46.094Z,67.80
2023-05-09T21:05:34.837Z,67.20
2023-05-09T21:08:26.474Z,68.10
2023-05-09T21:11:15.590Z,67.90
2023-05-09T21:14:04.469Z,68.50
2023-05-09T21:16:55.147Z,68.50
2023-05-09T21:19:44.171Z,68.40
2023-05-09T21:22:33.216Z,68.00
2023-05-09T21:25:23.549Z,68.60
2023-05-09T21:28:14.568Z,68.50
2023-05-09T21:31:03.540Z,68.30
2023-05-09T21:33:52.526Z,69.10
2023-05-09T21:36:42.312Z,68.60
2023-05-09T21:39:33.322Z,69.40
2023-05-09T21:42:24.189Z,69.70
2023-05-09T21:45:13.152Z,69.70
2023-05-09T21:48:02.353Z,69.50
2023-05-09T21:50:51.181Z,70.40
2023-05-09T21:53:39.977Z,70.20
2023-05-09T21:56:28.789Z,70.10
2023-05-09T21:59:20.867Z,70.50
2023-05-09T22:02:09.736Z,71.10
2023-05-09T22:04:58.681Z,70.50
2023-05-09T22:07:47.494Z,70.60
2023-05-09T22:10:37.846Z,71.30
2023-05-09T22:13:29.012Z,71.40
2023-05-09T22:16:19.515Z,71.60
2023-05-09T22:19:08.529Z,72.00
2023-05-09T22:21:57.420Z,71.60
2023-05-09T22:24:46.304Z,72.60
2023-05-09T22:27:35.163Z,72.90
2023-05-09T22:30:24.233Z,72.90
2023-05-09T22:33:14.357Z,72.70
2023-05-09T22:36:03.453Z,71.40
2023-05-09T22:38:52.178Z,72.30
2023-05-09T22:41:40.881Z,72.50
2023-05-09T22:44:30.967Z,72.40
2023-05-09T22:47:19.655Z,73.00
2023-05-09T22:50:12.257Z,72.70
2023-05-09T22:53:01.142Z,73.00
2023-05-09T22:55:49.864Z,74.20
2023-05-09T22:58:38.517Z,74.00
2023-05-09T23:01:28.581Z,74.30
2023-05-09T23:04:17.493Z,74.70
2023-05-09T23:07:07.882Z,75.30
2023-05-09T23:09:56.667Z,74.80
2023-05-09T23:12:45.507Z,74.80
2023-05-09T23:15:34.744Z,74.20
2023-05-09T23:18:24.034Z,75.00
2023-05-09T23:21:13.017Z,74.10
2023-05-09T23:24:03.480Z,76.10
2023-05-09T23:26:52.228Z,76.00
2023-05-09T23:29:41.009Z,76.40
2023-05-09T23:32:29.708Z,75.40
2023-05-09T23:35:19.308Z,76.40
2023-05-09T23:38:08.151Z,76.50
2023-05-09T23:41:00.254Z,75.50
2023-05-09T23:43:49.360Z,75.90
2023-05-09T23:46:38.389Z,76.20
2023-05-09T23:49:27.393Z,76.60
2023-05-09T23:52:16.522Z,76.40
2023-05-09T23:55:05.995Z,76.10
2023-05-09T23:57:56.505Z,76.50
